createdAt,value
2018-07-10T00:00:08.302Z,9.27
2018-07-10T00:02:47.289Z,8.53
2018-07-10T00:06:45.266Z,8.93
2018-07-10T00:09:24.156Z,9.17
2018-07-10T00:11:52.380Z,9.40
2018-07-10T00:14:20.285Z,10.10
2018-07-10T00:16:48.189Z,10.10
2018-07-10T00:19:16.061Z,9.90
2018-07-10T00:21:44.029Z,10.40
2018-07-10T00:24:11.930Z,10.00
2018-07-10T00:26:39.798Z,10.10
2018-07-10T00:29:07.953Z,11.00
2018-07-10T00:31:35.842Z,9.80
2018-07-10T00:34:03.720Z,10.67
2018-07-10T00:36:31.723Z,9.83
2018-07-10T00:39:01.674Z,9.20
2018-07-10T00:41:33.060Z,8.87
2018-07-10T00:44:01.706Z,8.40
2018-07-10T00:46:30.804Z,9.43
2018-07-10T00:48:58.857Z,9.40
2018-07-10T00:51:27.563Z,7.70
2018-07-10T00:53:55.526Z,8.03
2018-07-10T00:56:23.498Z,7.90
2018-07-10T00:58:52.993Z,8.47
2018-07-10T01:01:21.942Z,9.67
2018-07-10T01:03:50.137Z,8.30
2018-07-10T01:06:18.298Z,8.30
2018-07-10T01:08:47.032Z,8.73
2018-07-10T01:11:16.061Z,7.70
2018-07-10T01:13:44.914Z,8.13
2018-07-10T01:16:13.674Z,8.15
2018-07-10T01:18:43.649Z,7.97
2018-07-10T01:21:16.498Z,8.87
2018-07-10T01:23:44.549Z,9.50
2018-07-10T01:26:13.160Z,9.27
2018-07-10T01:28:41.913Z,8.70
2018-07-10T01:31:10.187Z,8.40
2018-07-10T01:33:38.246Z,8.17
2018-07-10T01:36:07.074Z,7.80
2018-07-10T01:38:35.858Z,8.60
2018-07-10T01:41:04.327Z,7.60
2018-07-10T01:43:32.618Z,8.03
2018-07-10T01:46:00.749Z,8.40
2018-07-10T01:48:28.604Z,8.23
2018-07-10T01:50:56.471Z,8.17
2018-07-10T01:53:24.538Z,9.03
2018-07-10T01:55:52.502Z,8.77
2018-07-10T01:58:20.742Z,7.80
2018-07-10T02:00:48.838Z,7.37
2018-07-10T02:03:16.777Z,7.20
2018-07-10T02:05:44.645Z,9.73
2018-07-10T02:08:12.528Z,8.80
2018-07-10T02:10:40.471Z,10.63
2018-07-10T02:13:08.661Z,9.40
2018-07-10T02:15:36.662Z,10.20
2018-07-10T02:18:04.629Z,8.70
2018-07-10T02:21:07.437Z,9.47
2018-07-10T02:23:43.444Z,9.90
2018-07-10T02:26:17.745Z,10.20
2018-07-10T02:28:45.757Z,10.00
2018-07-10T02:31:13.750Z,9.70
2018-07-10T02:33:41.701Z,9.00
2018-07-10T02:36:09.710Z,8.83
2018-07-10T02:38:40.975Z,10.53
2018-07-10T02:41:10.844Z,9.20
2018-07-10T02:43:38.857Z,9.03
2018-07-10T02:46:07.176Z,9.43
2018-07-10T02:48:35.454Z,9.43
2018-07-10T02:51:05.683Z,10.27
2018-07-10T02:53:35.602Z,9.53
2018-07-10T02:56:03.968Z,9.00
2018-07-10T02:58:33.948Z,9.57
2018-07-10T03:01:02.833Z,10.30
2018-07-10T03:03:31.751Z,10.27
2018-07-10T03:05:59.755Z,10.20
2018-07-10T03:08:27.825Z,9.10
2018-07-10T03:10:55.843Z,9.07
2018-07-10T03:13:24.679Z,9.90
2018-07-10T03:15:53.747Z,8.85
2018-07-10T03:18:21.790Z,9.87
2018-07-10T03:20:49.829Z,10.53
2018-07-10T03:23:17.884Z,10.00
2018-07-10T03:25:45.972Z,10.32
2018-07-10T03:28:14.019Z,10.33
2018-07-10T03:30:42.046Z,10.00
2018-07-10T03:33:10.069Z,10.50
2018-07-10T03:35:38.058Z,11.43
2018-07-10T03:38:06.094Z,9.70
2018-07-10T03:40:34.137Z,10.50
2018-07-10T03:43:02.197Z,10.57
2018-07-10T03:45:30.178Z,9.43
2018-07-10T03:47:58.705Z,10.30
2018-07-10T03:50:27.429Z,10.70
2018-07-10T03:52:55.470Z,10.53
2018-07-10T03:55:24.343Z,11.03
2018-07-10T03:57:54.331Z,10.90
2018-07-10T04:00:22.352Z,11.83
2018-07-10T04:02:51.407Z,10.60
2018-07-10T04:05:20.662Z,10.40
2018-07-10T04:07:54.081Z,10.67
2018-07-10T04:10:26.861Z,11.33
2018-07-10T04:12:56.346Z,13.00
2018-07-10T04:15:24.329Z,10.97
2018-07-10T04:18:03.977Z,11.10
2018-07-10T04:20:41.961Z,11.70
2018-07-10T04:23:10.022Z,15.50
2018-07-10T04:25:47.880Z,10.57
2018-07-10T04:28:21.455Z,9.93
2018-07-10T04:31:32.770Z,9.60
2018-07-10T04:34:00.845Z,9.30
2018-07-10T04:36:28.959Z,11.20
2018-07-10T04:38:58.262Z,10.30
2018-07-10T04:41:29.682Z,10.17
2018-07-10T04:44:09.807Z,10.67
2018-07-10T04:46:41.448Z,9.37
2018-07-10T04:49:20.473Z,10.63
2018-07-10T04:51:54.583Z,11.80
2018-07-10T04:54:34.034Z,8.83
2018-07-10T04:57:08.452Z,9.03
2018-07-10T04:59:36.773Z,9.80
2018-07-10T05:02:05.441Z,9.77
2018-07-10T05:04:33.453Z,10.47
2018-07-10T05:07:06.884Z,7.87
2018-07-10T05:09:35.851Z,8.07
2018-07-10T05:12:04.210Z,8.60
2018-07-10T05:14:32.259Z,7.33
2018-07-10T05:17:00.586Z,8.17
2018-07-10T05:19:28.711Z,8.90
2018-07-10T05:21:56.706Z,8.50
2018-07-10T05:24:24.756Z,9.13
2018-07-10T05:26:52.759Z,7.30
2018-07-10T05:29:20.785Z,7.23
2018-07-10T05:31:49.134Z,7.00
2018-07-10T05:34:17.149Z,6.57
2018-07-10T05:36:45.209Z,6.37
2018-07-10T05:39:13.224Z,7.47
2018-07-10T05:41:45.160Z,7.33
2018-07-10T05:44:18.861Z,6.97
2018-07-10T05:46:47.281Z,7.30
2018-07-10T05:49:15.790Z,8.17
2018-07-10T05:51:47.363Z,8.13
2018-07-10T05:54:15.482Z,8.83
2018-07-10T05:56:43.539Z,10.40
2018-07-10T05:59:11.769Z,8.30
2018-07-10T06:01:40.934Z,9.43
2018-07-10T06:04:11.561Z,9.77
2018-07-10T06:06:39.946Z,10.10
2018-07-10T06:09:07.978Z,10.00
2018-07-10T06:11:36.414Z,9.90
2018-07-10T06:14:04.444Z,9.47
2018-07-10T06:16:33.254Z,8.57
2018-07-10T06:19:01.250Z,8.23
2018-07-10T06:21:41.878Z,8.10
2018-07-10T06:24:11.554Z,8.90
2018-07-10T06:26:41.070Z,9.17
2018-07-10T06:29:09.486Z,9.20
2018-07-10T06:31:51.040Z,9.27
2018-07-10T06:34:20.476Z,9.40
2018-07-10T06:36:57.313Z,8.37
2018-07-10T06:39:25.361Z,8.47
2018-07-10T06:41:58.893Z,9.27
2018-07-10T06:44:26.921Z,9.13
2018-07-10T06:46:58.457Z,8.93
2018-07-10T06:49:32.046Z,9.03
2018-07-10T06:52:11.752Z,9.33
2018-07-10T06:54:46.251Z,9.47
2018-07-10T06:57:14.488Z,9.50
2018-07-10T06:59:42.453Z,9.50
2018-07-10T07:02:10.886Z,9.23
2018-07-10T07:04:38.897Z,9.43
2018-07-10T07:07:07.239Z,9.23
2018-07-10T07:09:35.663Z,9.97
2018-07-10T07:12:03.707Z,9.60
2018-07-10T07:14:31.682Z,9.30
2018-07-10T07:16:59.681Z,9.27
2018-07-10T07:19:27.793Z,8.57
2018-07-10T07:21:55.810Z,8.23
2018-07-10T07:24:23.820Z,9.37
2018-07-10T07:26:51.830Z,8.40
2018-07-10T07:29:19.835Z,8.53
2018-07-10T07:31:48.149Z,9.53
2018-07-10T07:34:16.128Z,9.37
2018-07-10T07:36:44.033Z,8.87
2018-07-10T07:39:12.042Z,7.67
2018-07-10T07:41:40.161Z,7.40
2018-07-10T07:44:08.343Z,8.60
2018-07-10T07:46:36.294Z,9.57
2018-07-10T07:49:04.326Z,7.93
2018-07-10T07:51:32.295Z,8.77
2018-07-10T07:54:00.755Z,8.37
2018-07-10T07:56:28.784Z,9.03
2018-07-10T07:58:57.138Z,8.77
2018-07-10T08:01:25.474Z,8.57
2018-07-10T08:03:54.615Z,8.40
2018-07-10T08:06:22.696Z,9.40
2018-07-10T08:08:50.900Z,7.93
2018-07-10T08:11:19.184Z,7.60
2018-07-10T08:13:47.643Z,6.90
2018-07-10T08:16:16.286Z,6.57
2018-07-10T08:18:44.459Z,6.90
2018-07-10T08:21:12.651Z,7.70
2018-07-10T08:23:41.137Z,6.67
2018-07-10T08:26:09.358Z,6.33
2018-07-10T08:28:37.415Z,6.97
2018-07-10T08:31:05.550Z,6.73
2018-07-10T08:33:33.853Z,6.60
2018-07-10T08:36:02.008Z,6.97
2018-07-10T08:38:39.528Z,7.33
2018-07-10T08:41:12.755Z,6.63
2018-07-10T08:43:41.015Z,7.63
2018-07-10T08:46:09.205Z,6.70
2018-07-10T08:48:37.899Z,6.93
2018-07-10T08:51:06.158Z,7.80
2018-07-10T08:53:34.303Z,7.77
2018-07-10T08:56:02.496Z,7.50
2018-07-10T08:58:30.773Z,7.93
2018-07-10T09:00:58.964Z,7.73
2018-07-10T09:03:27.160Z,7.40
2018-07-10T09:05:55.338Z,7.53
2018-07-10T09:08:23.540Z,7.27
2018-07-10T09:10:52.075Z,7.70
2018-07-10T09:13:20.366Z,7.50
2018-07-10T09:15:48.705Z,7.53
2018-07-10T09:18:16.932Z,7.60
2018-07-10T09:20:49.514Z,6.83
2018-07-10T09:23:19.127Z,7.23
2018-07-10T09:25:48.514Z,7.07
2018-07-10T09:28:16.728Z,6.57
2018-07-10T09:30:44.951Z,6.10
2018-07-10T09:33:13.188Z,6.03
2018-07-10T09:35:41.286Z,6.93
2018-07-10T09:38:09.334Z,6.63
2018-07-10T09:40:37.623Z,7.83
2018-07-10T09:43:06.489Z,8.50
2018-07-10T09:45:36.494Z,8.20
2018-07-10T09:48:05.659Z,8.40
2018-07-10T09:50:33.865Z,9.17
2018-07-10T09:53:02.677Z,9.47
2018-07-10T09:55:31.041Z,8.87
2018-07-10T09:58:00.841Z,9.40
2018-07-10T10:00:34.468Z,10.47
2018-07-10T10:03:03.492Z,10.10
2018-07-10T10:05:43.288Z,9.87
2018-07-10T10:08:12.461Z,9.93
2018-07-10T10:10:41.060Z,9.87
2018-07-10T10:13:09.496Z,11.10
2018-07-10T10:15:37.980Z,9.57
2018-07-10T10:18:07.908Z,8.60
2018-07-10T10:20:38.431Z,8.73
2018-07-10T10:23:06.659Z,8.70
2018-07-10T10:25:37.315Z,9.67
2018-07-10T10:28:07.009Z,9.40
2018-07-10T10:30:36.297Z,10.33
2018-07-10T10:33:05.094Z,9.87
2018-07-10T10:35:33.172Z,8.90
2018-07-10T10:38:02.397Z,8.90
2018-07-10T10:40:33.142Z,9.13
2018-07-10T10:43:04.342Z,8.50
2018-07-10T10:45:35.301Z,8.57
2018-07-10T10:48:03.797Z,8.10
2018-07-10T10:50:31.886Z,7.57
2018-07-10T10:53:00.176Z,6.70
2018-07-10T10:55:28.278Z,7.67
2018-07-10T10:57:56.445Z,8.30
2018-07-10T11:00:25.277Z,7.57
2018-07-10T11:02:53.450Z,7.97
2018-07-10T11:05:21.709Z,8.70
2018-07-10T11:07:49.872Z,10.23
2018-07-10T11:10:18.905Z,9.93
2018-07-10T11:12:47.413Z,9.40
2018-07-10T11:15:15.601Z,9.40
2018-07-10T11:17:51.123Z,10.40
2018-07-10T11:20:58.371Z,9.83
2018-07-10T11:23:56.405Z,10.07
2018-07-10T11:26:34.940Z,8.93
2018-07-10T11:29:04.580Z,8.83
2018-07-10T11:31:33.401Z,7.37
2018-07-10T11:34:01.669Z,7.90
2018-07-10T11:36:29.805Z,7.93
2018-07-10T11:39:05.784Z,8.20
2018-07-10T11:44:10.411Z,8.13
2018-07-10T11:46:39.110Z,7.53
2018-07-10T11:49:07.364Z,7.80
2018-07-10T11:51:35.539Z,8.60
2018-07-10T11:54:04.026Z,8.50
2018-07-10T11:56:32.252Z,8.80
2018-07-10T11:59:00.750Z,8.13
2018-07-10T12:01:29.782Z,8.63
2018-07-10T12:03:58.485Z,9.00
2018-07-10T12:06:26.750Z,8.80
2018-07-10T12:08:56.965Z,9.30
2018-07-10T12:11:27.251Z,10.33
2018-07-10T12:13:55.397Z,12.10
2018-07-10T12:16:24.311Z,11.23
2018-07-10T12:18:52.535Z,11.70
2018-07-10T12:21:21.027Z,12.30
2018-07-10T12:23:49.389Z,11.63
2018-07-10T12:26:17.516Z,10.50
2018-07-10T12:28:46.264Z,12.20
2018-07-10T12:31:14.815Z,12.53
2018-07-10T12:33:42.875Z,10.67
2018-07-10T12:36:10.831Z,9.97
2018-07-10T12:38:38.866Z,8.20
2018-07-10T12:41:06.947Z,8.33
2018-07-10T12:43:35.008Z,8.43
2018-07-10T12:46:03.034Z,8.93
2018-07-10T12:48:31.037Z,8.13
2018-07-10T12:50:59.983Z,8.13
2018-07-10T12:53:28.055Z,8.00
2018-07-10T12:55:58.668Z,7.93
2018-07-10T12:58:26.691Z,8.43
2018-07-10T13:00:55.396Z,8.40
2018-07-10T13:03:23.621Z,8.10
2018-07-10T13:05:55.914Z,8.90
2018-07-10T13:08:23.942Z,7.93
2018-07-10T13:10:51.955Z,8.67
2018-07-10T13:13:20.030Z,7.70
2018-07-10T13:15:48.002Z,8.50
2018-07-10T13:18:19.355Z,7.70
2018-07-10T13:20:47.378Z,7.33
2018-07-10T13:23:15.397Z,7.53
2018-07-10T13:25:43.433Z,7.50
2018-07-10T13:28:11.366Z,8.10
2018-07-10T13:30:39.355Z,7.37
2018-07-10T13:33:07.364Z,7.63
2018-07-10T13:35:35.748Z,8.53
2018-07-10T13:38:04.443Z,7.90
2018-07-10T13:40:33.876Z,8.63
2018-07-10T13:43:01.934Z,8.10
2018-07-10T13:45:30.898Z,8.50
2018-07-10T13:47:58.934Z,7.70
2018-07-10T13:50:29.022Z,7.90
2018-07-10T13:52:58.121Z,8.00
2018-07-10T13:55:26.645Z,7.50
2018-07-10T13:58:05.071Z,7.00
2018-07-10T14:00:35.962Z,7.10
2018-07-10T14:03:04.278Z,7.07
2018-07-10T14:05:32.295Z,7.23
2018-07-10T14:08:00.346Z,6.93
2018-07-10T14:10:28.357Z,6.07
2018-07-10T14:12:57.370Z,6.90
2018-07-10T14:15:26.241Z,7.03
2018-07-10T14:17:54.433Z,6.93
2018-07-10T14:20:22.730Z,6.47
2018-07-10T14:22:50.759Z,10.60
2018-07-10T14:25:19.094Z,6.17
2018-07-10T14:27:47.054Z,6.77
2018-07-10T14:30:15.047Z,6.60
2018-07-10T14:32:43.367Z,6.47
2018-07-10T14:35:11.473Z,6.17
2018-07-10T14:37:39.751Z,5.97
2018-07-10T14:40:07.830Z,6.30
2018-07-10T14:42:37.281Z,6.40
2018-07-10T14:45:05.998Z,7.20
2018-07-10T14:47:37.219Z,6.33
2018-07-10T14:50:05.259Z,6.87
2018-07-10T14:52:33.261Z,7.30
2018-07-10T14:55:01.313Z,6.93
2018-07-10T14:57:29.435Z,6.13
2018-07-10T14:59:57.481Z,7.10
2018-07-10T15:02:25.809Z,7.07
2018-07-10T15:04:53.813Z,6.47
2018-07-10T15:07:21.706Z,6.27
2018-07-10T15:09:49.609Z,7.00
2018-07-10T15:12:17.521Z,6.87
2018-07-10T15:14:45.639Z,6.80
2018-07-10T15:17:19.274Z,6.90
2018-07-10T15:19:47.855Z,6.67
2018-07-10T15:22:15.754Z,6.33
2018-07-10T15:24:44.698Z,6.40
2018-07-10T15:27:12.618Z,6.47
2018-07-10T15:29:40.529Z,6.17
2018-07-10T15:32:08.499Z,5.70
2018-07-10T15:34:37.276Z,5.77
2018-07-10T15:37:05.253Z,6.10
2018-07-10T15:39:33.220Z,6.00
2018-07-10T15:42:01.187Z,6.90
2018-07-10T15:44:29.105Z,6.07
2018-07-10T15:46:56.982Z,7.27
2018-07-10T15:49:24.901Z,5.70
2018-07-10T15:51:52.830Z,6.53
2018-07-10T15:54:21.097Z,5.50
2018-07-10T15:56:49.023Z,7.00
2018-07-10T15:59:16.943Z,8.30
2018-07-10T16:01:45.011Z,7.60
2018-07-10T16:04:13.066Z,5.40
2018-07-10T16:06:41.603Z,5.50
2018-07-10T16:09:16.805Z,6.07
2018-07-10T16:11:45.279Z,6.07
2018-07-10T16:14:13.726Z,6.40
2018-07-10T16:16:42.093Z,5.83
2018-07-10T16:19:22.194Z,7.77
2018-07-10T16:22:06.086Z,6.07
2018-07-10T16:24:38.581Z,5.87
2018-07-10T16:27:06.654Z,5.97
2018-07-10T16:29:34.686Z,6.70
2018-07-10T16:32:06.061Z,5.87
2018-07-10T16:34:34.105Z,5.90
2018-07-10T16:37:03.116Z,7.27
2018-07-10T16:39:31.361Z,6.50
2018-07-10T16:42:05.001Z,6.00
2018-07-10T16:44:33.065Z,5.47
2018-07-10T16:47:07.068Z,5.70
2018-07-10T16:49:46.702Z,5.00
2018-07-10T16:52:21.806Z,5.83
2018-07-10T16:54:49.954Z,6.13
2018-07-10T16:57:17.990Z,5.57
2018-07-10T16:59:46.134Z,5.43
2018-07-10T17:02:14.218Z,6.80
2018-07-10T17:04:42.517Z,6.13
2018-07-10T17:07:10.682Z,7.00
2018-07-10T17:09:38.686Z,7.40
2018-07-10T17:12:06.661Z,8.37
2018-07-10T17:14:34.597Z,6.80
2018-07-10T17:17:02.674Z,7.90
2018-07-10T17:19:30.677Z,7.37
2018-07-10T17:21:58.582Z,7.53
2018-07-10T17:24:26.565Z,6.80
2018-07-10T17:26:54.673Z,6.97
2018-07-10T17:29:22.662Z,6.80
2018-07-10T17:31:50.707Z,7.50
2018-07-10T17:34:18.723Z,7.20
2018-07-10T17:36:46.754Z,6.83
2018-07-10T17:39:14.809Z,6.47
2018-07-10T17:41:42.840Z,6.67
2018-07-10T17:44:10.882Z,7.23
2018-07-10T17:46:39.162Z,6.50
2018-07-10T17:49:07.138Z,7.33
2018-07-10T17:51:35.114Z,7.03
2018-07-10T17:54:03.662Z,7.10
2018-07-10T17:56:31.746Z,7.07
2018-07-10T17:59:00.380Z,6.47
2018-07-10T18:01:28.467Z,7.00
2018-07-10T18:03:56.641Z,6.97
2018-07-10T18:06:24.586Z,6.63
2018-07-10T18:08:52.557Z,6.87
2018-07-10T18:11:20.564Z,6.70
2018-07-10T18:13:48.577Z,6.63
2018-07-10T18:16:16.522Z,6.87
2018-07-10T18:18:44.495Z,7.10
2018-07-10T18:21:12.502Z,11.63
2018-07-10T18:23:40.484Z,6.63
2018-07-10T18:26:08.371Z,6.93
2018-07-10T18:28:36.394Z,7.13
2018-07-10T18:31:04.450Z,6.87
2018-07-10T18:33:32.402Z,7.47
2018-07-10T18:36:00.942Z,7.23
2018-07-10T18:38:28.960Z,7.60
2018-07-10T18:40:57.037Z,7.27
2018-07-10T18:43:25.096Z,7.50
2018-07-10T18:45:53.058Z,7.40
2018-07-10T18:48:25.923Z,7.63
2018-07-10T18:50:54.181Z,7.73
2018-07-10T18:53:22.162Z,8.13
2018-07-10T18:55:50.669Z,8.10
2018-07-10T18:58:24.925Z,8.47
2018-07-10T19:01:03.071Z,8.93
2018-07-10T19:03:33.669Z,8.43
2018-07-10T19:06:06.477Z,7.93
2018-07-10T19:08:34.477Z,10.17
2018-07-10T19:11:02.918Z,7.53
2018-07-10T19:13:30.989Z,8.23
2018-07-10T19:15:59.287Z,8.30
2018-07-10T19:18:27.373Z,7.43
2018-07-10T19:21:05.576Z,7.60
2018-07-10T19:23:45.365Z,7.10
2018-07-10T19:26:14.048Z,7.00
2018-07-10T19:28:42.714Z,7.80
2018-07-10T19:31:17.398Z,7.50
2018-07-10T19:33:51.960Z,7.63
2018-07-10T19:36:21.189Z,8.37
2018-07-10T19:38:49.284Z,7.83
2018-07-10T19:41:19.666Z,7.70
2018-07-10T19:43:48.537Z,7.63
2018-07-10T19:46:16.677Z,7.10
2018-07-10T19:48:48.125Z,7.33
2018-07-10T19:51:16.681Z,7.73
2018-07-10T19:53:52.390Z,6.70
2018-07-10T19:56:21.185Z,7.00
2018-07-10T19:58:49.223Z,7.93
2018-07-10T20:01:29.475Z,7.43
2018-07-10T20:04:04.998Z,7.90
2018-07-10T20:06:39.745Z,7.13
2018-07-10T20:09:11.195Z,7.33
2018-07-10T20:11:45.456Z,7.30
2018-07-10T20:14:17.171Z,7.60
2018-07-10T20:16:51.700Z,7.40
2018-07-10T20:19:28.686Z,6.67
2018-07-10T20:24:09.945Z,7.97
2018-07-10T20:28:51.210Z,7.20
2018-07-10T20:31:28.091Z,7.20
2018-07-10T20:34:21.074Z,8.43
2018-07-10T20:36:53.370Z,7.87
2018-07-10T20:39:26.349Z,7.60
2018-07-10T20:41:54.413Z,7.90
2018-07-10T20:44:22.441Z,8.00
2018-07-10T20:47:00.578Z,7.83
2018-07-10T20:50:05.462Z,7.33
2018-07-10T20:53:00.134Z,7.83
2018-07-10T20:55:40.766Z,8.13
2018-07-10T20:58:11.823Z,11.63
2018-07-10T21:00:50.444Z,8.90
2018-07-10T21:04:25.913Z,8.10
2018-07-10T21:06:57.182Z,7.33
2018-07-10T21:09:35.167Z,8.50
2018-07-10T21:12:11.593Z,7.70
2018-07-10T21:15:17.193Z,7.80
2018-07-10T21:17:57.705Z,8.27
2018-07-10T21:20:35.614Z,7.57
2018-07-10T21:23:14.014Z,7.93
2018-07-10T21:25:51.514Z,9.07
2018-07-10T21:28:31.217Z,10.60
2018-07-10T21:31:08.190Z,11.07
2018-07-10T21:33:43.537Z,12.27
2018-07-10T21:36:17.985Z,12.03
2018-07-10T21:39:04.052Z,11.70
2018-07-10T21:41:53.507Z,11.07
2018-07-10T21:44:39.522Z,11.67
2018-07-10T21:47:46.106Z,10.40
2018-07-10T21:50:23.522Z,9.83
2018-07-10T21:52:51.565Z,10.57
2018-07-10T21:55:20.216Z,10.30
2018-07-10T21:57:48.506Z,9.07
2018-07-10T22:00:17.103Z,9.17
2018-07-10T22:02:45.171Z,9.40
2018-07-10T22:05:13.176Z,8.03
2018-07-10T22:07:41.339Z,7.97
2018-07-10T22:10:09.362Z,7.70
2018-07-10T22:12:42.627Z,8.30
2018-07-10T22:15:11.470Z,8.00
2018-07-10T22:17:39.834Z,7.17
2018-07-10T22:20:08.607Z,8.20
2018-07-10T22:22:36.692Z,7.90
2018-07-10T22:25:06.522Z,7.17
2018-07-10T22:27:36.881Z,8.10
2018-07-10T22:30:10.488Z,8.20
2018-07-10T22:32:44.947Z,7.60
2018-07-10T22:35:14.532Z,7.43
2018-07-10T22:37:42.638Z,6.80
2018-07-10T22:40:11.088Z,6.63
2018-07-10T22:42:39.089Z,6.97
2018-07-10T22:45:07.130Z,7.40
2018-07-10T22:47:38.305Z,6.73
2018-07-10T22:50:08.499Z,7.00
2018-07-10T22:52:42.737Z,6.67
2018-07-10T22:55:11.402Z,7.00
2018-07-10T22:57:39.422Z,6.43
2018-07-10T23:00:07.430Z,6.87
2018-07-10T23:02:35.166Z,6.97
2018-07-10T23:05:03.030Z,6.50
2018-07-10T23:07:30.991Z,7.07
2018-07-10T23:09:58.841Z,6.40
2018-07-10T23:12:26.707Z,6.80
2018-07-10T23:14:54.570Z,6.87
2018-07-10T23:17:22.371Z,7.87
2018-07-10T23:19:50.275Z,6.97
2018-07-10T23:22:18.829Z,6.90
2018-07-10T23:24:46.715Z,7.07
2018-07-10T23:27:14.583Z,7.40
2018-07-10T23:29:42.466Z,7.07
2018-07-10T23:32:10.343Z,6.60
2018-07-10T23:34:38.220Z,7.30
2018-07-10T23:37:12.154Z,7.07
2018-07-10T23:39:46.683Z,5.67
2018-07-10T23:42:30.075Z,6.10
2018-07-10T23:45:01.667Z,5.80
2018-07-10T23:47:32.137Z,6.10
2018-07-10T23:50:07.486Z,6.37
2018-07-10T23:53:53.686Z,6.97
2018-07-10T23:56:21.971Z,9.53
2018-07-10T23:58:50.769Z,9.17
